createdAt,value
2019-05-05T00:00:16.200Z,99.23
2019-05-05T00:01:16.202Z,99.23
2019-05-05T00:02:16.199Z,99.38
2019-05-05T00:03:16.185Z,99.13
2019-05-05T00:04:16.159Z,99.69
2019-05-05T00:05:16.152Z,99.85
2019-05-05T00:06:16.139Z,99.75
2019-05-05T00:07:16.147Z,99.02
2019-05-05T00:08:16.115Z,98.60
2019-05-05T00:09:16.103Z,99.02
2019-05-05T00:10:16.104Z,99.13
2019-05-05T00:11:16.085Z,99.02
2019-05-05T00:12:16.075Z,97.88
2019-05-05T00:13:16.075Z,98.08
2019-05-05T00:14:16.059Z,98.29
2019-05-05T00:15:16.047Z,97.46
2019-05-05T00:16:16.027Z,97.50
2019-05-05T00:17:16.024Z,97.46
2019-05-05T00:18:16.023Z,97.81
2019-05-05T00:19:29.001Z,97.71
2019-05-05T00:20:16.980Z,97.71
2019-05-05T00:21:15.975Z,97.92
2019-05-05T00:22:15.959Z,97.56
2019-05-05T00:23:15.955Z,97.30
2019-05-05T00:24:15.965Z,97.30
2019-05-05T00:25:15.938Z,97.71
2019-05-05T00:26:15.935Z,97.61
2019-05-05T00:27:15.911Z,97.71
2019-05-05T00:28:15.899Z,97.50
2019-05-05T00:29:15.886Z,97.71
2019-05-05T00:30:15.891Z,97.30
2019-05-05T00:31:15.867Z,97.92
2019-05-05T00:32:15.851Z,97.61
2019-05-05T00:33:15.859Z,97.71
2019-05-05T00:34:15.838Z,97.71
2019-05-05T00:35:15.819Z,97.65
2019-05-05T00:36:15.827Z,97.44
2019-05-05T00:37:15.795Z,97.75
2019-05-05T00:38:15.791Z,97.75
2019-05-05T00:39:15.775Z,97.75
2019-05-05T00:40:15.763Z,97.55
2019-05-05T00:41:15.759Z,97.92
2019-05-05T00:42:15.759Z,97.86
2019-05-05T00:43:15.736Z,97.65
2019-05-05T00:44:15.719Z,97.97
2019-05-05T00:45:15.713Z,97.75
2019-05-05T00:46:16.540Z,97.97
2019-05-05T00:47:15.716Z,97.86
2019-05-05T00:48:15.679Z,97.55
2019-05-05T00:49:15.679Z,97.65
2019-05-05T00:50:15.663Z,97.97
2019-05-05T00:51:15.648Z,97.75
2019-05-05T00:52:15.635Z,97.75
2019-05-05T00:53:15.659Z,97.44
2019-05-05T00:54:15.611Z,97.55
2019-05-05T00:55:15.604Z,97.34
2019-05-05T00:56:15.615Z,97.55
2019-05-05T00:57:15.583Z,97.34
2019-05-05T00:58:15.566Z,97.65
2019-05-05T00:59:15.585Z,97.44
2019-05-05T01:00:15.546Z,97.49
2019-05-05T01:01:15.560Z,97.49
2019-05-05T01:02:15.530Z,97.75
2019-05-05T01:03:15.514Z,97.55
2019-05-05T01:04:15.523Z,97.80
2019-05-05T01:05:15.500Z,98.01
2019-05-05T01:06:15.483Z,97.80
2019-05-05T01:07:15.475Z,97.80
2019-05-05T01:08:15.471Z,97.97
2019-05-05T01:09:15.458Z,97.91
2019-05-05T01:10:15.456Z,97.49
2019-05-05T01:11:15.432Z,97.28
2019-05-05T01:12:15.420Z,97.80
2019-05-05T01:13:15.412Z,97.28
2019-05-05T01:14:15.399Z,97.80
2019-05-05T01:15:15.393Z,97.91
2019-05-05T01:16:15.400Z,97.91
2019-05-05T01:17:15.367Z,97.80
2019-05-05T01:18:15.357Z,98.01
2019-05-05T01:19:15.338Z,98.11
2019-05-05T01:20:15.335Z,97.49
2019-05-05T01:21:15.323Z,97.49
2019-05-05T01:22:15.347Z,97.28
2019-05-05T01:23:15.302Z,97.44
2019-05-05T01:24:15.293Z,97.38
2019-05-05T01:25:15.279Z,97.55
2019-05-05T01:26:15.267Z,97.70
2019-05-05T01:27:15.256Z,97.28
2019-05-05T01:28:15.263Z,96.66
2019-05-05T01:29:15.249Z,96.76
2019-05-05T01:30:15.252Z,96.61
2019-05-05T01:31:15.224Z,96.66
2019-05-05T01:32:15.321Z,96.44
2019-05-05T01:33:15.191Z,96.55
2019-05-05T01:34:15.319Z,96.55
2019-05-05T01:35:15.168Z,96.66
2019-05-05T01:36:15.167Z,96.23
2019-05-05T01:37:15.250Z,96.03
2019-05-05T01:38:15.138Z,96.34
2019-05-05T01:39:15.128Z,95.92
2019-05-05T01:40:15.135Z,95.50
2019-05-05T01:41:15.108Z,95.82
2019-05-05T01:42:15.112Z,95.19
2019-05-05T01:43:15.080Z,95.40
2019-05-05T01:44:15.307Z,95.82
2019-05-05T01:45:15.079Z,96.13
2019-05-05T01:46:15.063Z,95.82
2019-05-05T01:47:15.043Z,96.13
2019-05-05T01:48:15.037Z,95.76
2019-05-05T01:49:15.019Z,95.50
2019-05-05T01:50:20.588Z,96.03
2019-05-05T01:51:16.015Z,95.76
2019-05-05T01:52:15.168Z,96.28
2019-05-05T01:53:15.300Z,94.88
2019-05-05T01:54:14.964Z,95.61
2019-05-05T01:55:14.954Z,95.44
2019-05-05T01:56:15.420Z,95.09
2019-05-05T01:57:15.070Z,95.72
2019-05-05T01:58:15.336Z,95.55
2019-05-05T01:59:14.911Z,95.34
2019-05-05T02:00:14.979Z,94.57
2019-05-05T02:01:15.330Z,95.13
2019-05-05T02:02:14.883Z,94.98
2019-05-05T02:03:14.904Z,94.61
2019-05-05T02:04:14.863Z,94.50
2019-05-05T02:05:14.943Z,94.61
2019-05-05T02:06:14.846Z,95.23
2019-05-05T02:07:14.823Z,94.82
2019-05-05T02:08:15.379Z,95.23
2019-05-05T02:09:15.873Z,95.13
2019-05-05T02:10:15.335Z,95.03
2019-05-05T02:11:15.634Z,95.23
2019-05-05T02:12:15.787Z,95.55
2019-05-05T02:13:16.069Z,95.13
2019-05-05T02:14:15.619Z,95.76
2019-05-05T02:15:15.082Z,95.86
2019-05-05T02:16:15.115Z,96.28
2019-05-05T02:17:14.715Z,95.97
2019-05-05T02:18:15.003Z,96.38
2019-05-05T02:19:14.694Z,96.38
2019-05-05T02:20:28.412Z,96.28
2019-05-05T02:21:15.675Z,96.38
2019-05-05T02:22:14.891Z,95.44
2019-05-05T02:23:15.203Z,95.76
2019-05-05T02:24:14.644Z,95.86
2019-05-05T02:25:14.653Z,96.07
2019-05-05T02:26:15.317Z,95.55
2019-05-05T02:27:14.755Z,95.76
2019-05-05T02:28:15.061Z,95.23
2019-05-05T02:29:14.589Z,96.07
2019-05-05T02:30:16.217Z,95.86
2019-05-05T02:31:16.662Z,96.07
2019-05-05T02:32:15.728Z,96.11
2019-05-05T02:33:15.702Z,95.13
2019-05-05T02:34:16.507Z,95.55
2019-05-05T02:35:16.197Z,95.76
2019-05-05T02:36:15.992Z,96.22
2019-05-05T02:37:16.100Z,95.55
2019-05-05T02:38:15.700Z,96.01
2019-05-05T02:39:15.933Z,95.97
2019-05-05T02:40:15.955Z,96.43
2019-05-05T02:41:15.485Z,96.28
2019-05-05T02:42:14.805Z,96.74
2019-05-05T02:43:15.266Z,95.97
2019-05-05T02:44:15.480Z,95.76
2019-05-05T02:45:15.561Z,96.07
2019-05-05T02:46:14.637Z,96.64
2019-05-05T02:47:15.526Z,96.22
2019-05-05T02:48:15.461Z,95.76
2019-05-05T02:49:15.313Z,95.65
2019-05-05T02:50:15.552Z,96.22
2019-05-05T02:51:15.352Z,96.17
2019-05-05T02:52:15.262Z,96.17
2019-05-05T02:53:14.365Z,96.01
2019-05-05T02:54:14.318Z,96.22
2019-05-05T02:55:14.732Z,96.01
2019-05-05T02:56:14.680Z,95.59
2019-05-05T02:57:14.291Z,96.01
2019-05-05T02:58:14.299Z,96.22
2019-05-05T02:59:14.747Z,96.64
2019-05-05T03:00:14.251Z,96.33
2019-05-05T03:01:14.239Z,96.01
2019-05-05T03:02:14.534Z,96.22
2019-05-05T03:03:14.219Z,96.33
2019-05-05T03:04:14.285Z,96.33
2019-05-05T03:05:14.348Z,96.01
2019-05-05T03:06:14.524Z,96.53
2019-05-05T03:07:14.191Z,96.43
2019-05-05T03:08:14.175Z,96.22
2019-05-05T03:09:14.155Z,96.43
2019-05-05T03:10:14.220Z,96.43
2019-05-05T03:11:14.518Z,96.43
2019-05-05T03:12:14.921Z,96.95
2019-05-05T03:13:14.131Z,96.64
2019-05-05T03:14:14.393Z,96.53
2019-05-05T03:15:14.337Z,96.47
2019-05-05T03:16:14.257Z,96.68
2019-05-05T03:17:14.491Z,96.68
2019-05-05T03:18:14.058Z,96.89
2019-05-05T03:19:14.310Z,96.95
2019-05-05T03:20:14.589Z,97.00
2019-05-05T03:21:14.101Z,97.05
2019-05-05T03:22:14.341Z,96.74
2019-05-05T03:23:14.007Z,96.68
2019-05-05T03:24:14.425Z,96.84
2019-05-05T03:25:13.995Z,97.05
2019-05-05T03:26:14.152Z,97.05
2019-05-05T03:27:14.466Z,97.27
2019-05-05T03:28:13.954Z,97.78
2019-05-05T03:29:13.946Z,97.78
2019-05-05T03:30:15.408Z,97.37
2019-05-05T03:31:15.964Z,97.37
2019-05-05T03:32:16.152Z,97.68
2019-05-05T03:33:15.954Z,97.37
2019-05-05T03:34:16.406Z,97.89
2019-05-05T03:35:13.891Z,97.16
2019-05-05T03:36:14.086Z,97.68
2019-05-05T03:37:14.596Z,97.83
2019-05-05T03:38:14.276Z,97.16
2019-05-05T03:39:14.395Z,97.58
2019-05-05T03:40:14.822Z,97.58
2019-05-05T03:41:13.814Z,97.37
2019-05-05T03:42:14.032Z,97.47
2019-05-05T03:43:14.489Z,97.27
2019-05-05T03:44:14.150Z,97.05
2019-05-05T03:45:14.541Z,97.89
2019-05-05T03:46:13.750Z,97.41
2019-05-05T03:47:14.045Z,97.47
2019-05-05T03:48:13.735Z,97.41
2019-05-05T03:49:14.163Z,97.72
2019-05-05T03:50:14.436Z,97.62
2019-05-05T03:51:18.806Z,97.41
2019-05-05T03:52:14.710Z,97.62
2019-05-05T03:53:14.090Z,97.31
2019-05-05T03:54:14.613Z,98.04
2019-05-05T03:55:13.911Z,97.52
2019-05-05T03:56:14.081Z,97.83
2019-05-05T03:57:14.214Z,97.94
2019-05-05T03:58:14.692Z,97.52
2019-05-05T03:59:14.248Z,97.62
2019-05-05T04:00:14.261Z,97.72
2019-05-05T04:01:14.528Z,97.62
2019-05-05T04:02:14.189Z,97.31
2019-05-05T04:03:14.701Z,97.72
2019-05-05T04:04:13.943Z,97.72
2019-05-05T04:05:14.571Z,98.14
2019-05-05T04:06:14.672Z,97.83
2019-05-05T04:07:14.032Z,97.94
2019-05-05T04:08:14.503Z,97.83
2019-05-05T04:09:13.773Z,97.94
2019-05-05T04:10:14.046Z,97.37
2019-05-05T04:11:14.346Z,97.41
2019-05-05T04:12:13.779Z,97.72
2019-05-05T04:13:13.943Z,97.72
2019-05-05T04:14:14.248Z,97.78
2019-05-05T04:15:14.196Z,97.89
2019-05-05T04:16:13.697Z,97.72
2019-05-05T04:17:14.107Z,97.47
2019-05-05T04:18:14.561Z,97.47
2019-05-05T04:19:13.922Z,98.10
2019-05-05T04:20:13.865Z,97.27
2019-05-05T04:21:14.488Z,97.37
2019-05-05T04:22:13.671Z,97.58
2019-05-05T04:23:14.188Z,97.47
2019-05-05T04:24:14.544Z,97.58
2019-05-05T04:25:13.938Z,97.68
2019-05-05T04:26:14.263Z,96.74
2019-05-05T04:27:14.685Z,97.68
2019-05-05T04:28:13.695Z,97.68
2019-05-05T04:29:13.944Z,97.58
2019-05-05T04:30:14.295Z,97.68
2019-05-05T04:31:13.641Z,97.37
2019-05-05T04:32:14.089Z,97.68
2019-05-05T04:33:14.208Z,97.58
2019-05-05T04:34:13.527Z,97.47
2019-05-05T04:35:14.089Z,97.37
2019-05-05T04:36:14.437Z,97.37
2019-05-05T04:37:14.912Z,97.37
2019-05-05T04:38:13.889Z,97.27
2019-05-05T04:39:14.373Z,97.27
2019-05-05T04:40:14.870Z,97.16
2019-05-05T04:41:14.040Z,97.99
2019-05-05T04:42:14.028Z,98.10
2019-05-05T04:43:14.359Z,98.10
2019-05-05T04:44:14.857Z,97.99
2019-05-05T04:45:14.838Z,97.68
2019-05-05T04:46:13.980Z,98.10
2019-05-05T04:47:14.527Z,97.78
2019-05-05T04:48:13.739Z,97.68
2019-05-05T04:49:13.987Z,97.99
2019-05-05T04:50:14.952Z,97.78
2019-05-05T04:51:13.909Z,98.41
2019-05-05T04:52:14.315Z,97.53
2019-05-05T04:53:13.542Z,98.62
2019-05-05T04:54:14.181Z,98.26
2019-05-05T04:55:13.840Z,97.99
2019-05-05T04:56:14.103Z,98.21
2019-05-05T04:57:14.852Z,97.95
2019-05-05T04:58:13.660Z,97.89
2019-05-05T04:59:14.404Z,98.21
2019-05-05T05:00:13.706Z,98.16
2019-05-05T05:01:13.601Z,98.21
2019-05-05T05:02:14.429Z,98.47
2019-05-05T05:03:13.334Z,98.26
2019-05-05T05:04:13.798Z,98.26
2019-05-05T05:05:14.481Z,98.16
2019-05-05T05:06:14.617Z,97.95
2019-05-05T05:07:13.589Z,98.05
2019-05-05T05:08:13.975Z,97.95
2019-05-05T05:09:14.623Z,98.26
2019-05-05T05:10:13.874Z,98.26
2019-05-05T05:11:14.205Z,97.85
2019-05-05T05:12:14.598Z,98.05
2019-05-05T05:13:13.834Z,98.22
2019-05-05T05:14:14.390Z,98.22
2019-05-05T05:15:14.585Z,98.05
2019-05-05T05:16:13.879Z,98.63
2019-05-05T05:17:14.094Z,98.22
2019-05-05T05:18:14.768Z,98.01
2019-05-05T05:19:13.716Z,98.11
2019-05-05T05:20:14.159Z,97.91
2019-05-05T05:21:14.508Z,97.91
2019-05-05T05:22:13.672Z,97.91
2019-05-05T05:23:14.140Z,97.44
2019-05-05T05:24:14.673Z,97.44
2019-05-05T05:25:13.603Z,97.55
2019-05-05T05:26:13.905Z,97.65
2019-05-05T05:27:13.890Z,97.55
2019-05-05T05:28:14.352Z,97.61
2019-05-05T05:29:14.893Z,97.30
2019-05-05T05:30:13.755Z,97.81
2019-05-05T05:31:14.094Z,97.81
2019-05-05T05:32:12.613Z,97.61
2019-05-05T05:33:14.766Z,97.50
2019-05-05T05:34:14.660Z,97.56
2019-05-05T05:35:14.064Z,97.46
2019-05-05T05:36:14.416Z,97.25
2019-05-05T05:37:13.510Z,97.31
2019-05-05T05:38:14.002Z,97.00
2019-05-05T05:39:13.973Z,96.26
2019-05-05T05:40:14.395Z,97.31
2019-05-05T05:41:13.666Z,97.20
2019-05-05T05:42:13.726Z,96.85
2019-05-05T05:43:13.905Z,97.06
2019-05-05T05:44:14.055Z,96.22
2019-05-05T05:45:14.436Z,96.43
2019-05-05T05:46:13.603Z,95.91
2019-05-05T05:47:14.055Z,96.12
2019-05-05T05:48:14.253Z,96.12
2019-05-05T05:49:13.507Z,96.12
2019-05-05T05:50:14.302Z,95.97
2019-05-05T05:51:14.482Z,96.12
2019-05-05T05:52:18.756Z,95.97
2019-05-05T05:53:13.960Z,95.66
2019-05-05T05:54:14.156Z,95.87
2019-05-05T05:55:14.445Z,95.56
2019-05-05T05:56:13.519Z,95.76
2019-05-05T05:57:13.605Z,95.66
2019-05-05T05:58:14.039Z,95.45
2019-05-05T05:59:14.087Z,95.87
2019-05-05T06:00:14.362Z,95.56
2019-05-05T06:01:14.553Z,95.35
2019-05-05T06:02:15.255Z,95.25
2019-05-05T06:03:14.134Z,95.56
2019-05-05T06:04:14.391Z,96.08
2019-05-05T06:05:12.236Z,95.87
2019-05-05T06:06:13.850Z,95.97
2019-05-05T06:07:14.317Z,95.66
2019-05-05T06:08:14.220Z,96.18
2019-05-05T06:09:12.185Z,96.39
2019-05-05T06:10:22.293Z,95.66
2019-05-05T06:11:13.653Z,95.72
2019-05-05T06:12:14.005Z,96.24
2019-05-05T06:13:14.916Z,96.03
2019-05-05T06:14:14.424Z,96.55
2019-05-05T06:15:14.106Z,97.28
2019-05-05T06:16:12.113Z,97.38
2019-05-05T06:17:13.527Z,96.86
2019-05-05T06:18:13.835Z,96.45
2019-05-05T06:19:13.954Z,96.20
2019-05-05T06:20:12.062Z,97.24
2019-05-05T06:21:13.717Z,96.30
2019-05-05T06:22:13.932Z,96.14
2019-05-05T06:23:14.755Z,96.30
2019-05-05T06:24:13.612Z,96.41
2019-05-05T06:25:15.540Z,96.30
2019-05-05T06:26:14.901Z,97.24
2019-05-05T06:27:14.110Z,96.57
2019-05-05T06:28:14.303Z,97.09
2019-05-05T06:29:11.978Z,96.04
2019-05-05T06:30:13.798Z,95.84
2019-05-05T06:31:13.883Z,95.69
2019-05-05T06:32:11.938Z,95.28
2019-05-05T06:33:13.718Z,96.11
2019-05-05T06:34:13.860Z,95.38
2019-05-05T06:35:13.728Z,95.07
2019-05-05T06:36:13.825Z,95.69
2019-05-05T06:37:11.886Z,95.69
2019-05-05T06:38:13.654Z,95.54
2019-05-05T06:39:13.598Z,95.23
2019-05-05T06:40:13.879Z,94.71
2019-05-05T06:41:11.850Z,94.40
2019-05-05T06:42:13.576Z,94.30
2019-05-05T06:43:13.486Z,94.40
2019-05-05T06:44:11.805Z,94.67
2019-05-05T06:45:11.797Z,94.26
2019-05-05T06:46:11.777Z,93.63
2019-05-05T06:47:13.557Z,94.15
2019-05-05T06:48:13.451Z,94.26
2019-05-05T06:49:13.548Z,94.32
2019-05-05T06:50:13.504Z,94.53
2019-05-05T06:51:13.916Z,93.70
2019-05-05T06:52:11.730Z,94.89
2019-05-05T06:53:13.540Z,93.54
2019-05-05T06:54:13.617Z,93.33
2019-05-05T06:55:11.681Z,92.93
2019-05-05T06:56:11.665Z,92.72
2019-05-05T06:57:13.513Z,92.68
2019-05-05T06:58:13.601Z,92.63
2019-05-05T06:59:13.590Z,93.15
2019-05-05T07:00:13.825Z,93.25
2019-05-05T07:01:11.613Z,92.53
2019-05-05T07:02:11.601Z,91.18
2019-05-05T07:03:13.752Z,91.08
2019-05-05T07:04:11.593Z,91.80
2019-05-05T07:05:11.593Z,91.28
2019-05-05T07:06:11.574Z,91.70
2019-05-05T07:07:11.545Z,91.97
2019-05-05T07:08:13.601Z,92.18
2019-05-05T07:09:13.395Z,93.10
2019-05-05T07:10:11.517Z,90.83
2019-05-05T07:11:11.526Z,90.93
2019-05-05T07:12:13.636Z,90.93
2019-05-05T07:13:11.486Z,90.93
2019-05-05T07:14:11.471Z,91.45
2019-05-05T07:15:11.465Z,91.45
2019-05-05T07:16:12.844Z,91.03
2019-05-05T07:17:11.461Z,91.97
2019-05-05T07:18:11.422Z,92.07
2019-05-05T07:19:11.413Z,91.93
2019-05-05T07:20:13.444Z,91.61
2019-05-05T07:21:11.389Z,90.68
2019-05-05T07:22:11.398Z,91.16
2019-05-05T07:23:11.373Z,90.64
2019-05-05T07:24:11.362Z,89.50
2019-05-05T07:25:13.611Z,90.23
2019-05-05T07:26:11.341Z,89.71
2019-05-05T07:27:11.325Z,90.39
2019-05-05T07:28:11.329Z,89.50
2019-05-05T07:29:11.305Z,89.56
2019-05-05T07:30:11.285Z,90.50
2019-05-05T07:31:11.277Z,90.29
2019-05-05T07:32:11.277Z,90.25
2019-05-05T07:33:11.277Z,90.35
2019-05-05T07:34:11.241Z,89.94
2019-05-05T07:35:11.234Z,88.49
2019-05-05T07:36:11.225Z,88.28
2019-05-05T07:37:11.210Z,87.35
2019-05-05T07:38:11.197Z,88.45
2019-05-05T07:39:11.229Z,88.24
2019-05-05T07:40:13.425Z,88.04
2019-05-05T07:41:11.169Z,87.10
2019-05-05T07:42:11.166Z,87.21
2019-05-05T07:43:11.145Z,85.66
2019-05-05T07:44:25.031Z,87.21
2019-05-05T07:45:20.298Z,87.93
2019-05-05T07:46:13.522Z,86.59
2019-05-05T07:47:11.100Z,87.10
2019-05-05T07:48:11.094Z,87.00
2019-05-05T07:49:11.083Z,86.96
2019-05-05T07:50:24.926Z,86.96
2019-05-05T07:51:13.963Z,86.86
2019-05-05T07:52:11.225Z,87.13
2019-05-05T07:53:14.906Z,85.78
2019-05-05T07:54:14.305Z,85.10
2019-05-05T07:55:11.011Z,85.21
2019-05-05T07:56:11.026Z,85.68
2019-05-05T07:57:10.998Z,85.89
2019-05-05T07:58:10.981Z,85.78
2019-05-05T07:59:10.965Z,85.89
2019-05-05T08:00:10.962Z,86.78
2019-05-05T08:01:10.953Z,85.85
2019-05-05T08:02:10.946Z,85.33
2019-05-05T08:03:10.937Z,84.75
2019-05-05T08:04:10.909Z,83.41
2019-05-05T08:05:10.902Z,84.75
2019-05-05T08:06:10.889Z,85.68
2019-05-05T08:07:10.877Z,85.58
2019-05-05T08:08:10.881Z,84.86
2019-05-05T08:09:10.921Z,85.17
2019-05-05T08:10:10.845Z,85.47
2019-05-05T08:11:10.842Z,85.68
2019-05-05T08:12:10.821Z,84.86
2019-05-05T08:13:10.824Z,85.47
2019-05-05T08:14:10.830Z,84.96
2019-05-05T08:15:10.785Z,84.96
2019-05-05T08:16:10.777Z,84.92
2019-05-05T08:17:10.769Z,85.44
2019-05-05T08:18:10.769Z,84.20
2019-05-05T08:19:10.741Z,84.30
2019-05-05T08:20:10.761Z,83.83
2019-05-05T08:21:10.729Z,85.17
2019-05-05T08:22:10.713Z,85.13
2019-05-05T08:23:10.701Z,85.06
2019-05-05T08:24:10.693Z,85.37
2019-05-05T08:25:10.689Z,85.27
2019-05-05T08:26:10.702Z,84.65
2019-05-05T08:27:10.653Z,85.17
2019-05-05T08:28:10.695Z,84.96
2019-05-05T08:29:10.633Z,84.75
2019-05-05T08:30:10.621Z,85.17
2019-05-05T08:31:10.610Z,84.75
2019-05-05T08:32:10.613Z,84.51
2019-05-05T08:33:10.592Z,83.89
2019-05-05T08:34:10.589Z,82.96
2019-05-05T08:35:10.565Z,82.65
2019-05-05T08:36:10.555Z,83.17
2019-05-05T08:37:10.550Z,83.17
2019-05-05T08:38:10.543Z,82.71
2019-05-05T08:39:10.521Z,81.79
2019-05-05T08:40:10.514Z,81.17
2019-05-05T08:41:10.522Z,81.79
2019-05-05T08:42:10.493Z,80.04
2019-05-05T08:43:10.473Z,81.58
2019-05-05T08:44:10.477Z,82.30
2019-05-05T08:45:10.453Z,79.48
2019-05-05T08:46:10.442Z,79.17
2019-05-05T08:47:10.433Z,79.90
2019-05-05T08:48:10.433Z,79.58
2019-05-05T08:49:10.409Z,80.51
2019-05-05T08:50:10.417Z,80.51
2019-05-05T08:51:10.385Z,80.10
2019-05-05T08:52:10.377Z,81.27
2019-05-05T08:53:10.374Z,81.96
2019-05-05T08:54:10.377Z,81.09
2019-05-05T08:55:10.342Z,80.06
2019-05-05T08:56:10.334Z,78.83
2019-05-05T08:57:10.321Z,79.14
2019-05-05T08:58:10.314Z,78.41
2019-05-05T08:59:10.325Z,78.83
2019-05-05T09:00:10.317Z,78.41
2019-05-05T09:01:10.275Z,78.00
2019-05-05T09:02:10.265Z,79.65
2019-05-05T09:03:10.273Z,79.00
2019-05-05T09:04:10.237Z,78.38
2019-05-05T09:05:10.269Z,79.10
2019-05-05T09:06:10.261Z,76.90
2019-05-05T09:07:10.209Z,78.34
2019-05-05T09:08:10.225Z,77.38
2019-05-05T09:09:10.181Z,76.86
2019-05-05T09:10:10.173Z,77.38
2019-05-05T09:11:10.161Z,77.45
2019-05-05T09:12:10.189Z,78.23
2019-05-05T09:13:10.141Z,77.27
2019-05-05T09:14:10.125Z,75.42
2019-05-05T09:15:10.118Z,74.60
2019-05-05T09:16:10.105Z,75.01
2019-05-05T09:17:10.121Z,74.80
2019-05-05T09:18:10.097Z,75.73
2019-05-05T09:19:10.074Z,75.93
2019-05-05T09:20:10.065Z,75.46
2019-05-05T09:21:10.051Z,75.04
2019-05-05T09:22:10.050Z,76.28
2019-05-05T09:23:10.049Z,76.69
2019-05-05T09:24:10.013Z,74.33
2019-05-05T09:25:10.005Z,73.50
2019-05-05T09:26:10.000Z,73.81
2019-05-05T09:27:09.981Z,75.46
2019-05-05T09:28:09.978Z,73.57
2019-05-05T09:29:09.981Z,73.44
2019-05-05T09:30:09.975Z,73.61
2019-05-05T09:31:09.969Z,73.36
2019-05-05T09:32:09.947Z,72.44
2019-05-05T09:33:09.917Z,72.00
2019-05-05T09:34:09.916Z,72.24
2019-05-05T09:35:09.910Z,69.37
2019-05-05T09:36:09.893Z,69.09
2019-05-05T09:37:09.873Z,70.42
2019-05-05T09:38:09.865Z,72.78
2019-05-05T09:39:09.853Z,70.97
2019-05-05T09:40:09.857Z,70.83
2019-05-05T09:41:09.845Z,72.27
2019-05-05T09:42:09.817Z,72.09
2019-05-05T09:43:09.807Z,73.64
2019-05-05T09:44:09.793Z,75.32
2019-05-05T09:45:09.837Z,75.52
2019-05-05T09:46:09.770Z,76.14
2019-05-05T09:47:09.777Z,77.17
2019-05-05T09:48:09.749Z,77.62
2019-05-05T09:49:09.741Z,77.72
2019-05-05T09:50:09.731Z,77.31
2019-05-05T09:51:09.713Z,79.61
2019-05-05T09:52:09.722Z,78.31
2019-05-05T09:53:09.709Z,81.51
2019-05-05T09:54:13.981Z,83.47
2019-05-05T09:55:09.673Z,83.05
2019-05-05T09:56:09.661Z,84.08
2019-05-05T09:57:09.661Z,84.70
2019-05-05T09:58:09.633Z,85.11
2019-05-05T09:59:09.645Z,84.39
2019-05-05T10:00:09.613Z,85.17
2019-05-05T10:01:09.609Z,84.35
2019-05-05T10:02:09.593Z,84.45
2019-05-05T10:03:09.585Z,84.31
2019-05-05T10:04:09.594Z,81.95
2019-05-05T10:05:09.565Z,81.84
2019-05-05T10:06:09.610Z,82.35
2019-05-05T10:07:09.541Z,83.04
2019-05-05T10:08:09.533Z,82.11
2019-05-05T10:09:09.519Z,81.67
2019-05-05T10:10:09.525Z,82.79
2019-05-05T10:11:09.521Z,83.83
2019-05-05T10:12:09.496Z,83.17
2019-05-05T10:13:09.480Z,83.68
2019-05-05T10:14:09.470Z,82.71
2019-05-05T10:15:09.465Z,82.57
2019-05-05T10:16:09.441Z,80.63
2019-05-05T10:17:09.449Z,79.70
2019-05-05T10:18:09.417Z,80.79
2019-05-05T10:19:09.405Z,81.16
2019-05-05T10:20:09.393Z,81.16
2019-05-05T10:21:09.405Z,77.98
2019-05-05T10:22:09.373Z,75.52
2019-05-05T10:23:09.357Z,77.17
2019-05-05T10:24:09.348Z,76.45
2019-05-05T10:25:09.333Z,77.98
2019-05-05T10:26:09.353Z,79.83
2019-05-05T10:27:09.341Z,77.10
2019-05-05T10:28:09.306Z,74.32
2019-05-05T10:29:09.313Z,75.59
2019-05-05T10:30:10.647Z,77.13
2019-05-05T10:31:09.269Z,79.80
2019-05-05T10:32:09.293Z,78.47
2019-05-05T10:33:09.250Z,79.91
2019-05-05T10:34:09.257Z,79.43
2019-05-05T10:35:09.225Z,77.89
2019-05-05T10:36:09.213Z,76.59
2019-05-05T10:37:09.205Z,77.00
2019-05-05T10:38:09.205Z,76.73
2019-05-05T10:39:09.177Z,78.10
2019-05-05T10:40:09.197Z,78.96
2019-05-05T10:41:09.169Z,80.19
2019-05-05T10:42:09.161Z,81.74
2019-05-05T10:43:09.169Z,83.01
2019-05-05T10:44:09.133Z,83.05
2019-05-05T10:45:16.165Z,84.59
2019-05-05T10:46:09.109Z,85.97
2019-05-05T10:47:09.094Z,87.48
2019-05-05T10:48:09.085Z,87.99
2019-05-05T10:49:09.089Z,87.17
2019-05-05T10:50:09.064Z,87.65
2019-05-05T10:51:09.060Z,88.68
2019-05-05T10:52:09.037Z,89.67
2019-05-05T10:53:09.026Z,90.90
2019-05-05T10:54:09.033Z,91.17
2019-05-05T10:55:09.005Z,91.44
2019-05-05T10:56:09.025Z,91.44
2019-05-05T10:57:08.981Z,90.88
2019-05-05T10:58:08.976Z,89.70
2019-05-05T10:59:08.963Z,89.03
2019-05-05T11:00:12.471Z,86.11
2019-05-05T11:01:09.965Z,86.62
2019-05-05T11:02:08.934Z,87.65
2019-05-05T11:03:15.953Z,82.82
2019-05-05T11:04:08.901Z,79.77
2019-05-05T11:05:08.897Z,81.69
2019-05-05T11:06:08.958Z,84.36
2019-05-05T11:07:08.889Z,85.25
2019-05-05T11:08:08.889Z,82.78
2019-05-05T11:09:08.849Z,78.16
2019-05-05T11:10:08.837Z,77.27
2019-05-05T11:11:08.825Z,77.58
2019-05-05T11:12:08.813Z,78.47
2019-05-05T11:13:08.818Z,78.47
2019-05-05T11:14:08.789Z,78.36
2019-05-05T11:15:08.793Z,76.00
2019-05-05T11:16:08.774Z,77.75
2019-05-05T11:17:08.757Z,78.74
2019-05-05T11:18:08.757Z,76.24
2019-05-05T11:19:08.747Z,75.59
2019-05-05T11:20:08.725Z,73.02
2019-05-05T11:21:08.713Z,72.78
2019-05-05T11:22:08.701Z,75.21
2019-05-05T11:23:08.701Z,67.83
2019-05-05T11:24:08.697Z,69.85
2019-05-05T11:25:08.673Z,72.07
2019-05-05T11:26:08.681Z,70.23
2019-05-05T11:27:08.645Z,69.20
2019-05-05T11:28:08.633Z,71.32
2019-05-05T11:29:08.633Z,70.06
2019-05-05T11:30:08.616Z,67.30
2019-05-05T11:31:08.601Z,68.35
2019-05-05T11:32:08.606Z,68.87
2019-05-05T11:33:08.578Z,66.44
2019-05-05T11:34:08.573Z,69.41
2019-05-05T11:35:08.557Z,66.67
2019-05-05T11:36:08.545Z,67.40
2019-05-05T11:37:08.533Z,67.63
2019-05-05T11:38:08.541Z,69.47
2019-05-05T11:39:08.509Z,68.96
2019-05-05T11:40:08.501Z,71.83
2019-05-05T11:41:08.505Z,70.09
2019-05-05T11:42:08.477Z,69.68
2019-05-05T11:43:08.465Z,72.03
2019-05-05T11:44:08.473Z,72.14
2019-05-05T11:45:08.445Z,70.70
2019-05-05T11:46:08.434Z,70.53
2019-05-05T11:47:08.421Z,69.84
2019-05-05T11:48:08.414Z,71.66
2019-05-05T11:49:08.410Z,68.92
2019-05-05T11:50:08.409Z,68.92
2019-05-05T11:51:15.473Z,67.38
2019-05-05T11:52:08.367Z,69.33
2019-05-05T11:53:08.353Z,71.18
2019-05-05T11:54:08.360Z,70.67
2019-05-05T11:55:12.009Z,69.61
2019-05-05T11:56:08.333Z,68.59
2019-05-05T11:57:08.307Z,68.59
2019-05-05T11:58:08.297Z,67.76
2019-05-05T11:59:08.286Z,68.89
2019-05-05T12:00:08.294Z,68.48
2019-05-05T12:01:08.265Z,68.89
2019-05-05T12:02:08.313Z,68.89
2019-05-05T12:03:08.244Z,69.71
2019-05-05T12:04:08.232Z,66.87
2019-05-05T12:05:08.241Z,66.25
2019-05-05T12:06:08.232Z,67.79
2019-05-05T12:07:08.217Z,69.64
2019-05-05T12:08:08.193Z,68.82
2019-05-05T12:09:08.273Z,70.26
2019-05-05T12:10:08.164Z,69.95
2019-05-05T12:11:08.156Z,69.33
2019-05-05T12:12:08.169Z,69.06
2019-05-05T12:13:08.141Z,70.15
2019-05-05T12:14:08.121Z,70.15
2019-05-05T12:15:08.109Z,69.02
2019-05-05T12:16:08.104Z,67.41
2019-05-05T12:17:08.119Z,68.51
2019-05-05T12:18:08.089Z,69.95
2019-05-05T12:19:08.060Z,68.72
2019-05-05T12:20:08.052Z,69.02
2019-05-05T12:21:08.046Z,69.10
2019-05-05T12:22:08.034Z,69.30
2019-05-05T12:23:08.033Z,65.48
2019-05-05T12:24:08.024Z,65.48
2019-05-05T12:25:07.997Z,63.87
2019-05-05T12:26:08.017Z,62.12
2019-05-05T12:27:07.973Z,62.12
2019-05-05T12:28:07.968Z,61.00
2019-05-05T12:29:07.973Z,61.10
2019-05-05T12:30:07.968Z,60.58
2019-05-05T12:31:07.998Z,61.71
2019-05-05T12:32:07.936Z,58.54
2019-05-05T12:33:07.913Z,58.95
2019-05-05T12:34:07.911Z,59.05
2019-05-05T12:35:07.891Z,61.38
2019-05-05T12:36:07.941Z,60.66
2019-05-05T12:37:07.881Z,60.46
2019-05-05T12:38:07.856Z,61.48
2019-05-05T12:39:07.885Z,62.10
2019-05-05T12:40:07.836Z,61.38
2019-05-05T12:41:07.820Z,58.51
2019-05-05T12:42:07.809Z,59.02
2019-05-05T12:43:07.837Z,59.23
2019-05-05T12:44:07.784Z,60.46
2019-05-05T12:45:07.786Z,57.69
2019-05-05T12:46:07.768Z,58.40
2019-05-05T12:47:07.793Z,58.61
2019-05-05T12:48:07.749Z,58.07
2019-05-05T12:49:07.744Z,58.92
2019-05-05T12:50:07.731Z,58.00
2019-05-05T12:51:07.724Z,56.77
2019-05-05T12:52:07.709Z,58.48